sensor_id;sensor_type;location;lat;lon;timestamp;P1;durP1;ratioP1;P2;durP2;ratioP2
82332;SDS011;72491;56.880;60.614;2023-09-07T00:00:41;19.60;;;10.88;;
82332;SDS011;72491;56.880;60.614;2023-09-07T00:03:07;13.60;;;9.20;;
82332;SDS011;72491;56.880;60.614;2023-09-07T00:05:32;13.60;;;9.10;;
82332;SDS011;72491;56.880;60.614;2023-09-07T00:07:57;13.65;;;9.52;;
82332;SDS011;72491;56.880;60.614;2023-09-07T00:10:23;17.65;;;9.35;;
82332;SDS011;72491;56.880;60.614;2023-09-07T00:12:50;13.55;;;8.90;;
82332;SDS011;72491;56.880;60.614;2023-09-07T00:15:16;15.13;;;8.15;;
82332;SDS011;72491;56.880;60.614;2023-09-07T00:17:44;12.55;;;7.43;;
82332;SDS011;72491;56.880;60.614;2023-09-07T00:20:10;12.13;;;8.25;;
82332;SDS011;72491;56.880;60.614;2023-09-07T00:22:36;9.60;;;7.78;;
82332;SDS011;72491;56.880;60.614;2023-09-07T00:25:01;12.00;;;7.50;;
82332;SDS011;72491;56.880;60.614;2023-09-07T00:27:28;13.95;;;6.45;;
82332;SDS011;72491;56.880;60.614;2023-09-07T00:29:55;14.05;;;7.32;;
82332;SDS011;72491;56.880;60.614;2023-09-07T00:32:20;14.55;;;7.35;;
82332;SDS011;72491;56.880;60.614;2023-09-07T00:34:45;13.38;;;8.18;;
82332;SDS011;72491;56.880;60.614;2023-09-07T00:37:11;11.57;;;7.50;;
82332;SDS011;72491;56.880;60.614;2023-09-07T00:39:36;16.50;;;8.37;;
82332;SDS011;72491;56.880;60.614;2023-09-07T00:42:02;14.52;;;9.10;;
82332;SDS011;72491;56.880;60.614;2023-09-07T00:44:27;13.95;;;7.78;;
82332;SDS011;72491;56.880;60.614;2023-09-07T00:46:52;11.95;;;7.80;;
82332;SDS011;72491;56.880;60.614;2023-09-07T00:49:18;11.82;;;6.93;;
82332;SDS011;72491;56.880;60.614;2023-09-07T00:51:45;11.32;;;7.70;;
82332;SDS011;72491;56.880;60.614;2023-09-07T00:54:10;16.48;;;8.73;;
82332;SDS011;72491;56.880;60.614;2023-09-07T00:56:35;14.60;;;7.80;;
82332;SDS011;72491;56.880;60.614;2023-09-07T00:59:01;12.40;;;9.02;;
82332;SDS011;72491;56.880;60.614;2023-09-07T01:01:29;14.40;;;8.18;;
82332;SDS011;72491;56.880;60.614;2023-09-07T01:03:56;14.02;;;8.60;;
82332;SDS011;72491;56.880;60.614;2023-09-07T01:09:20;15.00;;;8.85;;
82332;SDS011;72491;56.880;60.614;2023-09-07T01:11:47;16.77;;;9.38;;
82332;SDS011;72491;56.880;60.614;2023-09-07T01:14:12;18.30;;;10.23;;
82332;SDS011;72491;56.880;60.614;2023-09-07T01:16:37;15.10;;;8.98;;
82332;SDS011;72491;56.880;60.614;2023-09-07T01:19:07;16.92;;;9.80;;
82332;SDS011;72491;56.880;60.614;2023-09-07T01:21:39;20.02;;;11.27;;
82332;SDS011;72491;56.880;60.614;2023-09-07T01:24:06;14.80;;;8.65;;
82332;SDS011;72491;56.880;60.614;2023-09-07T01:26:31;13.05;;;7.13;;
82332;SDS011;72491;56.880;60.614;2023-09-07T01:28:57;11.95;;;8.13;;
82332;SDS011;72491;56.880;60.614;2023-09-07T01:31:23;12.23;;;8.25;;
82332;SDS011;72491;56.880;60.614;2023-09-07T01:33:48;13.52;;;8.40;;
82332;SDS011;72491;56.880;60.614;2023-09-07T01:36:15;13.73;;;7.75;;
82332;SDS011;72491;56.880;60.614;2023-09-07T01:38:40;15.37;;;7.83;;
82332;SDS011;72491;56.880;60.614;2023-09-07T01:41:06;11.90;;;6.93;;
82332;SDS011;72491;56.880;60.614;2023-09-07T01:43:31;13.95;;;7.72;;
82332;SDS011;72491;56.880;60.614;2023-09-07T01:45:56;13.53;;;8.13;;
82332;SDS011;72491;56.880;60.614;2023-09-07T01:48:21;23.33;;;8.48;;
82332;SDS011;72491;56.880;60.614;2023-09-07T01:50:51;12.90;;;7.37;;
82332;SDS011;72491;56.880;60.614;2023-09-07T01:53:17;13.13;;;7.72;;
82332;SDS011;72491;56.880;60.614;2023-09-07T01:55:42;14.65;;;8.77;;
82332;SDS011;72491;56.880;60.614;2023-09-07T01:58:07;15.43;;;8.68;;
82332;SDS011;72491;56.880;60.614;2023-09-07T02:00:37;16.70;;;8.32;;
82332;SDS011;72491;56.880;60.614;2023-09-07T02:03:03;13.05;;;7.60;;
82332;SDS011;72491;56.880;60.614;2023-09-07T02:05:28;13.57;;;8.48;;
82332;SDS011;72491;56.880;60.614;2023-09-07T02:07:54;19.02;;;9.07;;
82332;SDS011;72491;56.880;60.614;2023-09-07T02:10:19;14.15;;;8.10;;
82332;SDS011;72491;56.880;60.614;2023-09-07T02:12:45;15.40;;;9.52;;
82332;SDS011;72491;56.880;60.614;2023-09-07T02:15:10;17.80;;;11.45;;
82332;SDS011;72491;56.880;60.614;2023-09-07T02:17:36;22.33;;;9.40;;
82332;SDS011;72491;56.880;60.614;2023-09-07T02:20:02;15.75;;;8.55;;
82332;SDS011;72491;56.880;60.614;2023-09-07T02:22:33;13.60;;;9.57;;
82332;SDS011;72491;56.880;60.614;2023-09-07T02:24:58;19.38;;;11.38;;
82332;SDS011;72491;56.880;60.614;2023-09-07T02:27:24;24.38;;;11.73;;
82332;SDS011;72491;56.880;60.614;2023-09-07T02:29:50;19.42;;;11.80;;
82332;SDS011;72491;56.880;60.614;2023-09-07T02:32:15;33.65;;;16.27;;
82332;SDS011;72491;56.880;60.614;2023-09-07T02:34:41;25.70;;;12.90;;
82332;SDS011;72491;56.880;60.614;2023-09-07T02:37:07;21.33;;;11.15;;
82332;SDS011;72491;56.880;60.614;2023-09-07T02:39:32;19.52;;;12.23;;
82332;SDS011;72491;56.880;60.614;2023-09-07T02:41:58;19.33;;;10.07;;
82332;SDS011;72491;56.880;60.614;2023-09-07T02:44:23;13.80;;;9.63;;
82332;SDS011;72491;56.880;60.614;2023-09-07T02:46:48;18.98;;;12.35;;
82332;SDS011;72491;56.880;60.614;2023-09-07T02:49:14;17.88;;;10.82;;
82332;SDS011;72491;56.880;60.614;2023-09-07T02:51:40;24.77;;;14.48;;
82332;SDS011;72491;56.880;60.614;2023-09-07T02:54:06;28.98;;;17.73;;
82332;SDS011;72491;56.880;60.614;2023-09-07T02:56:31;25.67;;;13.40;;
82332;SDS011;72491;56.880;60.614;2023-09-07T02:58:56;26.10;;;15.18;;
82332;SDS011;72491;56.880;60.614;2023-09-07T03:01:23;24.25;;;14.60;;
82332;SDS011;72491;56.880;60.614;2023-09-07T03:03:48;26.20;;;13.32;;
82332;SDS011;72491;56.880;60.614;2023-09-07T03:06:14;25.73;;;11.05;;
82332;SDS011;72491;56.880;60.614;2023-09-07T03:08:41;23.27;;;10.18;;
82332;SDS011;72491;56.880;60.614;2023-09-07T03:11:07;24.58;;;13.25;;
82332;SDS011;72491;56.880;60.614;2023-09-07T03:13:32;18.02;;;10.57;;
82332;SDS011;72491;56.880;60.614;2023-09-07T03:15:58;16.30;;;9.20;;
82332;SDS011;72491;56.880;60.614;2023-09-07T03:18:23;26.60;;;12.88;;
82332;SDS011;72491;56.880;60.614;2023-09-07T03:20:50;28.67;;;12.65;;
82332;SDS011;72491;56.880;60.614;2023-09-07T03:23:16;34.88;;;13.32;;
82332;SDS011;72491;56.880;60.614;2023-09-07T03:25:41;22.60;;;11.73;;
82332;SDS011;72491;56.880;60.614;2023-09-07T03:28:06;18.33;;;10.07;;
82332;SDS011;72491;56.880;60.614;2023-09-07T03:30:33;17.90;;;9.48;;
82332;SDS011;72491;56.880;60.614;2023-09-07T03:32:58;15.52;;;9.32;;
82332;SDS011;72491;56.880;60.614;2023-09-07T03:35:23;18.80;;;10.10;;
82332;SDS011;72491;56.880;60.614;2023-09-07T03:37:49;26.23;;;11.55;;
82332;SDS011;72491;56.880;60.614;2023-09-07T03:40:14;19.15;;;10.65;;
82332;SDS011;72491;56.880;60.614;2023-09-07T03:42:40;19.55;;;10.35;;
82332;SDS011;72491;56.880;60.614;2023-09-07T03:45:05;19.52;;;9.43;;
82332;SDS011;72491;56.880;60.614;2023-09-07T03:47:31;14.32;;;9.00;;
82332;SDS011;72491;56.880;60.614;2023-09-07T03:49:57;24.90;;;11.07;;
82332;SDS011;72491;56.880;60.614;2023-09-07T03:52:23;17.13;;;10.00;;
82332;SDS011;72491;56.880;60.614;2023-09-07T03:54:51;26.48;;;10.23;;
82332;SDS011;72491;56.880;60.614;2023-09-07T03:57:18;20.60;;;9.55;;
82332;SDS011;72491;56.880;60.614;2023-09-07T03:59:44;16.30;;;8.63;;
82332;SDS011;72491;56.880;60.614;2023-09-07T04:02:09;16.38;;;9.30;;
82332;SDS011;72491;56.880;60.614;2023-09-07T04:04:35;21.88;;;11.15;;
82332;SDS011;72491;56.880;60.614;2023-09-07T04:07:00;32.92;;;11.48;;
82332;SDS011;72491;56.880;60.614;2023-09-07T04:09:25;16.27;;;9.82;;
82332;SDS011;72491;56.880;60.614;2023-09-07T04:11:51;16.27;;;7.45;;
82332;SDS011;72491;56.880;60.614;2023-09-07T04:14:16;19.10;;;10.57;;
82332;SDS011;72491;56.880;60.614;2023-09-07T04:16:41;18.00;;;10.48;;
82332;SDS011;72491;56.880;60.614;2023-09-07T04:19:07;14.98;;;10.23;;
82332;SDS011;72491;56.880;60.614;2023-09-07T04:21:33;20.00;;;7.57;;
82332;SDS011;72491;56.880;60.614;2023-09-07T04:23:59;14.10;;;8.18;;
82332;SDS011;72491;56.880;60.614;2023-09-07T04:26:24;19.48;;;9.15;;
82332;SDS011;72491;56.880;60.614;2023-09-07T04:28:49;11.97;;;7.73;;
82332;SDS011;72491;56.880;60.614;2023-09-07T04:31:15;25.27;;;8.07;;
82332;SDS011;72491;56.880;60.614;2023-09-07T04:33:41;7.93;;;4.45;;
82332;SDS011;72491;56.880;60.614;2023-09-07T04:36:13;13.95;;;6.63;;
82332;SDS011;72491;56.880;60.614;2023-09-07T04:38:38;11.57;;;6.15;;
82332;SDS011;72491;56.880;60.614;2023-09-07T04:41:11;16.73;;;6.75;;
82332;SDS011;72491;56.880;60.614;2023-09-07T04:43:36;13.43;;;8.30;;
82332;SDS011;72491;56.880;60.614;2023-09-07T04:46:02;11.80;;;5.78;;
82332;SDS011;72491;56.880;60.614;2023-09-07T04:48:28;17.38;;;6.78;;
82332;SDS011;72491;56.880;60.614;2023-09-07T04:51:04;14.88;;;7.30;;
82332;SDS011;72491;56.880;60.614;2023-09-07T04:53:31;21.35;;;7.38;;
82332;SDS011;72491;56.880;60.614;2023-09-07T04:55:57;15.38;;;7.30;;
82332;SDS011;72491;56.880;60.614;2023-09-07T04:58:22;12.27;;;5.65;;
82332;SDS011;72491;56.880;60.614;2023-09-07T05:00:49;17.58;;;6.85;;
82332;SDS011;72491;56.880;60.614;2023-09-07T05:03:14;15.55;;;8.15;;
82332;SDS011;72491;56.880;60.614;2023-09-07T05:05:40;10.80;;;6.80;;
82332;SDS011;72491;56.880;60.614;2023-09-07T05:08:06;12.23;;;6.95;;
82332;SDS011;72491;56.880;60.614;2023-09-07T05:10:34;14.73;;;6.85;;
82332;SDS011;72491;56.880;60.614;2023-09-07T05:12:59;14.88;;;7.65;;
82332;SDS011;72491;56.880;60.614;2023-09-07T05:15:25;9.48;;;6.72;;
82332;SDS011;72491;56.880;60.614;2023-09-07T05:17:51;15.70;;;6.78;;
82332;SDS011;72491;56.880;60.614;2023-09-07T05:20:17;15.48;;;7.68;;
82332;SDS011;72491;56.880;60.614;2023-09-07T05:22:43;12.40;;;6.38;;
82332;SDS011;72491;56.880;60.614;2023-09-07T05:25:09;10.00;;;6.97;;
82332;SDS011;72491;56.880;60.614;2023-09-07T05:27:34;11.07;;;5.97;;
82332;SDS011;72491;56.880;60.614;2023-09-07T05:30:04;15.68;;;6.93;;
82332;SDS011;72491;56.880;60.614;2023-09-07T05:32:29;14.18;;;6.93;;
82332;SDS011;72491;56.880;60.614;2023-09-07T05:34:55;20.02;;;7.55;;
82332;SDS011;72491;56.880;60.614;2023-09-07T05:37:20;11.50;;;6.40;;
82332;SDS011;72491;56.880;60.614;2023-09-07T05:39:45;9.80;;;5.70;;
82332;SDS011;72491;56.880;60.614;2023-09-07T05:42:11;14.85;;;6.15;;
82332;SDS011;72491;56.880;60.614;2023-09-07T05:44:37;11.63;;;5.35;;
82332;SDS011;72491;56.880;60.614;2023-09-07T05:47:02;8.45;;;5.72;;
82332;SDS011;72491;56.880;60.614;2023-09-07T05:49:28;8.30;;;5.20;;
82332;SDS011;72491;56.880;60.614;2023-09-07T05:51:53;10.85;;;4.65;;
82332;SDS011;72491;56.880;60.614;2023-09-07T05:54:18;13.93;;;4.30;;
82332;SDS011;72491;56.880;60.614;2023-09-07T05:56:44;7.10;;;4.93;;
82332;SDS011;72491;56.880;60.614;2023-09-07T05:59:09;6.87;;;4.80;;
82332;SDS011;72491;56.880;60.614;2023-09-07T06:01:35;6.68;;;5.03;;
82332;SDS011;72491;56.880;60.614;2023-09-07T06:04:00;6.82;;;3.88;;
82332;SDS011;72491;56.880;60.614;2023-09-07T06:06:26;7.72;;;4.43;;
82332;SDS011;72491;56.880;60.614;2023-09-07T06:08:51;8.07;;;4.80;;
82332;SDS011;72491;56.880;60.614;2023-09-07T06:11:16;11.40;;;4.18;;
82332;SDS011;72491;56.880;60.614;2023-09-07T06:13:42;8.85;;;3.85;;
82332;SDS011;72491;56.880;60.614;2023-09-07T06:16:07;14.15;;;4.63;;
82332;SDS011;72491;56.880;60.614;2023-09-07T06:18:32;4.53;;;2.63;;
82332;SDS011;72491;56.880;60.614;2023-09-07T06:20:59;8.25;;;4.07;;
82332;SDS011;72491;56.880;60.614;2023-09-07T06:23:24;8.52;;;3.13;;
82332;SDS011;72491;56.880;60.614;2023-09-07T06:25:49;7.65;;;3.70;;
82332;SDS011;72491;56.880;60.614;2023-09-07T06:28:15;6.95;;;4.05;;
82332;SDS011;72491;56.880;60.614;2023-09-07T06:30:41;5.90;;;2.92;;
82332;SDS011;72491;56.880;60.614;2023-09-07T06:33:06;4.72;;;2.15;;
82332;SDS011;72491;56.880;60.614;2023-09-07T06:35:31;3.25;;;2.13;;
82332;SDS011;72491;56.880;60.614;2023-09-07T06:37:57;6.65;;;3.15;;
82332;SDS011;72491;56.880;60.614;2023-09-07T06:40:22;5.80;;;3.13;;
82332;SDS011;72491;56.880;60.614;2023-09-07T06:42:48;5.50;;;3.22;;
82332;SDS011;72491;56.880;60.614;2023-09-07T06:45:13;5.13;;;3.08;;
82332;SDS011;72491;56.880;60.614;2023-09-07T06:47:38;4.72;;;2.90;;
82332;SDS011;72491;56.880;60.614;2023-09-07T06:50:06;9.02;;;3.08;;
82332;SDS011;72491;56.880;60.614;2023-09-07T06:52:31;4.65;;;3.05;;
82332;SDS011;72491;56.880;60.614;2023-09-07T06:54:57;5.13;;;2.97;;
82332;SDS011;72491;56.880;60.614;2023-09-07T06:57:22;8.23;;;3.70;;
82332;SDS011;72491;56.880;60.614;2023-09-07T06:59:48;4.88;;;3.03;;
82332;SDS011;72491;56.880;60.614;2023-09-07T07:02:14;4.20;;;2.67;;
82332;SDS011;72491;56.880;60.614;2023-09-07T07:04:39;5.45;;;3.03;;
82332;SDS011;72491;56.880;60.614;2023-09-07T07:07:04;5.22;;;3.40;;
82332;SDS011;72491;56.880;60.614;2023-09-07T07:09:31;4.53;;;3.25;;
82332;SDS011;72491;56.880;60.614;2023-09-07T07:11:57;4.63;;;2.72;;
82332;SDS011;72491;56.880;60.614;2023-09-07T07:14:23;6.75;;;2.80;;
82332;SDS011;72491;56.880;60.614;2023-09-07T07:16:48;5.40;;;3.00;;
82332;SDS011;72491;56.880;60.614;2023-09-07T07:19:13;6.75;;;3.47;;
82332;SDS011;72491;56.880;60.614;2023-09-07T07:21:39;4.85;;;2.92;;
82332;SDS011;72491;56.880;60.614;2023-09-07T07:24:05;6.30;;;3.35;;
82332;SDS011;72491;56.880;60.614;2023-09-07T07:26:32;4.70;;;3.22;;
82332;SDS011;72491;56.880;60.614;2023-09-07T07:28:58;15.77;;;3.47;;
82332;SDS011;72491;56.880;60.614;2023-09-07T07:31:24;6.88;;;3.20;;
82332;SDS011;72491;56.880;60.614;2023-09-07T07:33:49;7.15;;;3.67;;
82332;SDS011;72491;56.880;60.614;2023-09-07T07:36:15;6.50;;;3.30;;
82332;SDS011;72491;56.880;60.614;2023-09-07T07:38:40;4.07;;;3.00;;
82332;SDS011;72491;56.880;60.614;2023-09-07T07:41:05;7.47;;;3.50;;
82332;SDS011;72491;56.880;60.614;2023-09-07T07:43:32;5.40;;;2.63;;
82332;SDS011;72491;56.880;60.614;2023-09-07T07:45:57;6.68;;;3.70;;
82332;SDS011;72491;56.880;60.614;2023-09-07T07:48:23;7.15;;;3.13;;
82332;SDS011;72491;56.880;60.614;2023-09-07T07:50:49;5.75;;;3.38;;
82332;SDS011;72491;56.880;60.614;2023-09-07T07:53:14;6.22;;;3.35;;
82332;SDS011;72491;56.880;60.614;2023-09-07T07:55:39;5.10;;;3.03;;
82332;SDS011;72491;56.880;60.614;2023-09-07T07:58:08;6.72;;;3.72;;
82332;SDS011;72491;56.880;60.614;2023-09-07T08:00:38;5.25;;;2.72;;
82332;SDS011;72491;56.880;60.614;2023-09-07T08:03:03;5.07;;;3.72;;
82332;SDS011;72491;56.880;60.614;2023-09-07T08:05:33;6.35;;;2.45;;
82332;SDS011;72491;56.880;60.614;2023-09-07T08:07:59;4.10;;;3.03;;
82332;SDS011;72491;56.880;60.614;2023-09-07T08:10:24;6.88;;;3.22;;
82332;SDS011;72491;56.880;60.614;2023-09-07T08:12:53;6.38;;;3.63;;
82332;SDS011;72491;56.880;60.614;2023-09-07T08:15:19;4.18;;;2.78;;
82332;SDS011;72491;56.880;60.614;2023-09-07T08:17:46;6.53;;;3.38;;
82332;SDS011;72491;56.880;60.614;2023-09-07T08:20:13;5.70;;;2.90;;
82332;SDS011;72491;56.880;60.614;2023-09-07T08:22:39;5.97;;;3.13;;
82332;SDS011;72491;56.880;60.614;2023-09-07T08:25:07;5.15;;;2.95;;
82332;SDS011;72491;56.880;60.614;2023-09-07T08:27:32;4.60;;;2.50;;
82332;SDS011;72491;56.880;60.614;2023-09-07T08:29:58;7.10;;;3.17;;
82332;SDS011;72491;56.880;60.614;2023-09-07T08:32:24;4.80;;;3.03;;
82332;SDS011;72491;56.880;60.614;2023-09-07T08:34:49;4.53;;;2.47;;
82332;SDS011;72491;56.880;60.614;2023-09-07T08:37:16;5.82;;;2.95;;
82332;SDS011;72491;56.880;60.614;2023-09-07T08:39:41;3.83;;;2.28;;
82332;SDS011;72491;56.880;60.614;2023-09-07T08:42:06;5.18;;;2.60;;
82332;SDS011;72491;56.880;60.614;2023-09-07T08:44:32;6.10;;;2.58;;
82332;SDS011;72491;56.880;60.614;2023-09-07T08:46:58;4.38;;;2.72;;
82332;SDS011;72491;56.880;60.614;2023-09-07T08:49:25;6.72;;;3.22;;
82332;SDS011;72491;56.880;60.614;2023-09-07T08:51:50;5.78;;;2.60;;
82332;SDS011;72491;56.880;60.614;2023-09-07T08:54:16;4.13;;;2.80;;
82332;SDS011;72491;56.880;60.614;2023-09-07T08:56:42;5.07;;;2.70;;
82332;SDS011;72491;56.880;60.614;2023-09-07T08:59:08;4.63;;;2.88;;
82332;SDS011;72491;56.880;60.614;2023-09-07T09:01:35;4.53;;;2.92;;
82332;SDS011;72491;56.880;60.614;2023-09-07T09:04:02;4.47;;;2.92;;
82332;SDS011;72491;56.880;60.614;2023-09-07T09:06:27;6.05;;;3.25;;
82332;SDS011;72491;56.880;60.614;2023-09-07T09:08:54;6.47;;;2.70;;
82332;SDS011;72491;56.880;60.614;2023-09-07T09:11:20;5.15;;;2.30;;
82332;SDS011;72491;56.880;60.614;2023-09-07T09:13:46;5.40;;;2.40;;
82332;SDS011;72491;56.880;60.614;2023-09-07T09:16:11;7.00;;;2.65;;
82332;SDS011;72491;56.880;60.614;2023-09-07T09:18:38;4.30;;;2.85;;
82332;SDS011;72491;56.880;60.614;2023-09-07T09:21:05;8.32;;;3.05;;
82332;SDS011;72491;56.880;60.614;2023-09-07T09:23:35;4.07;;;3.10;;
82332;SDS011;72491;56.880;60.614;2023-09-07T09:26:01;4.30;;;2.80;;
82332;SDS011;72491;56.880;60.614;2023-09-07T09:28:28;7.25;;;2.80;;
82332;SDS011;72491;56.880;60.614;2023-09-07T09:30:55;9.05;;;2.88;;
82332;SDS011;72491;56.880;60.614;2023-09-07T09:33:20;4.32;;;3.10;;
82332;SDS011;72491;56.880;60.614;2023-09-07T09:35:46;5.18;;;2.33;;
82332;SDS011;72491;56.880;60.614;2023-09-07T09:38:12;3.30;;;2.05;;
82332;SDS011;72491;56.880;60.614;2023-09-07T09:40:38;4.80;;;2.60;;
82332;SDS011;72491;56.880;60.614;2023-09-07T09:43:03;3.55;;;1.92;;
82332;SDS011;72491;56.880;60.614;2023-09-07T09:45:29;4.00;;;2.58;;
82332;SDS011;72491;56.880;60.614;2023-09-07T09:47:55;4.05;;;2.30;;
82332;SDS011;72491;56.880;60.614;2023-09-07T09:50:22;6.50;;;3.38;;
82332;SDS011;72491;56.880;60.614;2023-09-07T09:52:48;6.93;;;2.50;;
82332;SDS011;72491;56.880;60.614;2023-09-07T09:55:13;4.03;;;1.73;;
82332;SDS011;72491;56.880;60.614;2023-09-07T09:57:40;4.35;;;2.83;;
82332;SDS011;72491;56.880;60.614;2023-09-07T10:00:07;6.15;;;3.40;;
82332;SDS011;72491;56.880;60.614;2023-09-07T10:02:49;5.60;;;2.67;;
82332;SDS011;72491;56.880;60.614;2023-09-07T10:05:16;6.22;;;3.20;;
82332;SDS011;72491;56.880;60.614;2023-09-07T10:07:43;4.45;;;2.47;;
82332;SDS011;72491;56.880;60.614;2023-09-07T10:10:09;6.28;;;3.38;;
82332;SDS011;72491;56.880;60.614;2023-09-07T10:12:39;5.20;;;1.77;;
82332;SDS011;72491;56.880;60.614;2023-09-07T10:15:05;8.52;;;3.00;;
82332;SDS011;72491;56.880;60.614;2023-09-07T10:17:30;5.25;;;3.13;;
82332;SDS011;72491;56.880;60.614;2023-09-07T10:20:06;5.88;;;2.75;;
82332;SDS011;72491;56.880;60.614;2023-09-07T10:22:31;4.60;;;2.35;;
82332;SDS011;72491;56.880;60.614;2023-09-07T10:24:59;8.30;;;3.17;;
82332;SDS011;72491;56.880;60.614;2023-09-07T10:27:24;6.22;;;3.45;;
82332;SDS011;72491;56.880;60.614;2023-09-07T10:29:51;4.22;;;2.42;;
82332;SDS011;72491;56.880;60.614;2023-09-07T10:32:19;5.03;;;3.13;;
82332;SDS011;72491;56.880;60.614;2023-09-07T10:34:44;6.43;;;2.60;;
82332;SDS011;72491;56.880;60.614;2023-09-07T10:37:10;4.38;;;2.60;;
82332;SDS011;72491;56.880;60.614;2023-09-07T10:39:38;5.82;;;2.50;;
82332;SDS011;72491;56.880;60.614;2023-09-07T10:42:04;4.05;;;2.40;;
82332;SDS011;72491;56.880;60.614;2023-09-07T10:44:29;5.03;;;3.20;;
82332;SDS011;72491;56.880;60.614;2023-09-07T10:46:56;7.93;;;4.10;;
82332;SDS011;72491;56.880;60.614;2023-09-07T10:49:21;4.82;;;2.75;;
82332;SDS011;72491;56.880;60.614;2023-09-07T10:51:47;3.80;;;2.08;;
82332;SDS011;72491;56.880;60.614;2023-09-07T10:54:23;5.30;;;3.40;;
82332;SDS011;72491;56.880;60.614;2023-09-07T10:56:48;5.25;;;2.92;;
82332;SDS011;72491;56.880;60.614;2023-09-07T10:59:14;6.95;;;2.95;;
82332;SDS011;72491;56.880;60.614;2023-09-07T11:01:41;5.40;;;3.05;;
82332;SDS011;72491;56.880;60.614;2023-09-07T11:04:06;7.80;;;3.50;;
82332;SDS011;72491;56.880;60.614;2023-09-07T11:06:33;6.22;;;3.30;;
82332;SDS011;72491;56.880;60.614;2023-09-07T11:08:59;4.72;;;2.03;;
82332;SDS011;72491;56.880;60.614;2023-09-07T11:11:24;5.38;;;2.83;;
82332;SDS011;72491;56.880;60.614;2023-09-07T11:13:51;5.65;;;3.40;;
82332;SDS011;72491;56.880;60.614;2023-09-07T11:16:16;5.90;;;3.05;;
82332;SDS011;72491;56.880;60.614;2023-09-07T11:18:42;5.50;;;3.25;;
82332;SDS011;72491;56.880;60.614;2023-09-07T11:21:09;4.32;;;1.98;;
82332;SDS011;72491;56.880;60.614;2023-09-07T11:23:35;7.28;;;3.63;;
82332;SDS011;72491;56.880;60.614;2023-09-07T11:26:07;7.35;;;3.00;;
82332;SDS011;72491;56.880;60.614;2023-09-07T11:28:33;6.88;;;2.97;;
82332;SDS011;72491;56.880;60.614;2023-09-07T11:31:00;4.43;;;2.08;;
82332;SDS011;72491;56.880;60.614;2023-09-07T11:33:25;7.40;;;3.55;;
82332;SDS011;72491;56.880;60.614;2023-09-07T11:35:51;6.68;;;3.83;;
82332;SDS011;72491;56.880;60.614;2023-09-07T11:38:17;3.53;;;2.35;;
82332;SDS011;72491;56.880;60.614;2023-09-07T11:40:42;2.72;;;1.65;;
82332;SDS011;72491;56.880;60.614;2023-09-07T11:43:10;7.50;;;3.08;;
82332;SDS011;72491;56.880;60.614;2023-09-07T11:45:35;4.80;;;3.20;;
82332;SDS011;72491;56.880;60.614;2023-09-07T11:48:00;7.18;;;3.60;;
82332;SDS011;72491;56.880;60.614;2023-09-07T11:50:27;5.60;;;3.00;;
82332;SDS011;72491;56.880;60.614;2023-09-07T11:52:55;9.25;;;3.75;;
82332;SDS011;72491;56.880;60.614;2023-09-07T11:55:20;6.88;;;3.90;;
82332;SDS011;72491;56.880;60.614;2023-09-07T11:57:45;7.80;;;2.80;;
82332;SDS011;72491;56.880;60.614;2023-09-07T12:00:12;6.38;;;2.97;;
82332;SDS011;72491;56.880;60.614;2023-09-07T12:02:38;6.70;;;3.67;;
82332;SDS011;72491;56.880;60.614;2023-09-07T12:05:04;6.55;;;3.63;;
82332;SDS011;72491;56.880;60.614;2023-09-07T12:07:30;7.40;;;3.70;;
82332;SDS011;72491;56.880;60.614;2023-09-07T12:09:55;10.77;;;3.67;;
82332;SDS011;72491;56.880;60.614;2023-09-07T12:12:22;5.00;;;2.75;;
82332;SDS011;72491;56.880;60.614;2023-09-07T12:14:48;6.32;;;3.75;;
82332;SDS011;72491;56.880;60.614;2023-09-07T12:17:13;5.78;;;3.20;;
82332;SDS011;72491;56.880;60.614;2023-09-07T12:19:39;5.68;;;3.38;;
82332;SDS011;72491;56.880;60.614;2023-09-07T12:22:07;7.32;;;3.40;;
82332;SDS011;72491;56.880;60.614;2023-09-07T12:24:33;6.55;;;2.92;;
82332;SDS011;72491;56.880;60.614;2023-09-07T12:26:58;8.63;;;4.18;;
82332;SDS011;72491;56.880;60.614;2023-09-07T12:29:24;6.90;;;2.92;;
82332;SDS011;72491;56.880;60.614;2023-09-07T12:31:50;6.40;;;3.22;;
82332;SDS011;72491;56.880;60.614;2023-09-07T12:34:15;6.35;;;3.70;;
82332;SDS011;72491;56.880;60.614;2023-09-07T12:36:40;4.75;;;2.95;;
82332;SDS011;72491;56.880;60.614;2023-09-07T12:39:06;7.63;;;3.25;;
82332;SDS011;72491;56.880;60.614;2023-09-07T12:41:32;9.60;;;4.45;;
82332;SDS011;72491;56.880;60.614;2023-09-07T12:43:57;7.35;;;4.38;;
82332;SDS011;72491;56.880;60.614;2023-09-07T12:46:22;7.05;;;3.33;;
82332;SDS011;72491;56.880;60.614;2023-09-07T12:48:47;7.53;;;3.90;;
82332;SDS011;72491;56.880;60.614;2023-09-07T12:51:14;3.55;;;2.08;;
82332;SDS011;72491;56.880;60.614;2023-09-07T12:53:39;10.32;;;4.43;;
82332;SDS011;72491;56.880;60.614;2023-09-07T12:56:04;5.85;;;3.22;;
82332;SDS011;72491;56.880;60.614;2023-09-07T12:58:30;4.70;;;2.33;;
82332;SDS011;72491;56.880;60.614;2023-09-07T13:00:56;8.90;;;3.50;;
82332;SDS011;72491;56.880;60.614;2023-09-07T13:03:21;4.63;;;2.45;;
82332;SDS011;72491;56.880;60.614;2023-09-07T13:05:47;7.40;;;3.33;;
82332;SDS011;72491;56.880;60.614;2023-09-07T13:08:13;6.80;;;3.88;;
82332;SDS011;72491;56.880;60.614;2023-09-07T13:10:38;7.97;;;4.30;;
82332;SDS011;72491;56.880;60.614;2023-09-07T13:13:04;4.13;;;2.05;;
82332;SDS011;72491;56.880;60.614;2023-09-07T13:15:29;6.85;;;3.80;;
82332;SDS011;72491;56.880;60.614;2023-09-07T13:17:54;7.70;;;4.28;;
82332;SDS011;72491;56.880;60.614;2023-09-07T13:20:20;10.68;;;3.85;;
82332;SDS011;72491;56.880;60.614;2023-09-07T13:22:46;3.20;;;2.80;;
82332;SDS011;72491;56.880;60.614;2023-09-07T13:25:11;8.02;;;3.75;;
82332;SDS011;72491;56.880;60.614;2023-09-07T13:27:37;10.95;;;4.40;;
82332;SDS011;72491;56.880;60.614;2023-09-07T13:30:04;9.75;;;4.15;;
82332;SDS011;72491;56.880;60.614;2023-09-07T13:32:29;9.73;;;4.22;;
82332;SDS011;72491;56.880;60.614;2023-09-07T13:34:55;9.95;;;4.10;;
82332;SDS011;72491;56.880;60.614;2023-09-07T13:37:20;7.93;;;4.00;;
82332;SDS011;72491;56.880;60.614;2023-09-07T13:39:46;8.60;;;3.88;;
82332;SDS011;72491;56.880;60.614;2023-09-07T13:42:11;8.63;;;3.35;;
82332;SDS011;72491;56.880;60.614;2023-09-07T13:44:36;6.90;;;3.00;;
82332;SDS011;72491;56.880;60.614;2023-09-07T13:47:02;6.25;;;3.50;;
82332;SDS011;72491;56.880;60.614;2023-09-07T13:49:27;7.82;;;3.78;;
82332;SDS011;72491;56.880;60.614;2023-09-07T13:51:52;8.30;;;3.78;;
82332;SDS011;72491;56.880;60.614;2023-09-07T13:54:18;13.40;;;4.28;;
82332;SDS011;72491;56.880;60.614;2023-09-07T13:56:43;10.18;;;5.10;;
82332;SDS011;72491;56.880;60.614;2023-09-07T13:59:10;10.20;;;4.25;;
82332;SDS011;72491;56.880;60.614;2023-09-07T14:01:36;14.05;;;5.68;;
82332;SDS011;72491;56.880;60.614;2023-09-07T14:04:02;8.82;;;4.38;;
82332;SDS011;72491;56.880;60.614;2023-09-07T14:06:28;14.35;;;6.18;;
82332;SDS011;72491;56.880;60.614;2023-09-07T14:08:53;18.67;;;5.43;;
82332;SDS011;72491;56.880;60.614;2023-09-07T14:11:18;10.70;;;5.28;;
82332;SDS011;72491;56.880;60.614;2023-09-07T14:13:44;9.68;;;3.95;;
82332;SDS011;72491;56.880;60.614;2023-09-07T14:16:09;11.90;;;5.35;;
82332;SDS011;72491;56.880;60.614;2023-09-07T14:18:37;10.68;;;5.60;;
82332;SDS011;72491;56.880;60.614;2023-09-07T14:21:03;8.65;;;3.08;;
82332;SDS011;72491;56.880;60.614;2023-09-07T14:23:29;11.55;;;4.55;;